createdAt,value
2018-09-28T00:00:31.586Z,0
2018-09-28T00:01:31.074Z,0
2018-09-28T00:02:31.076Z,0
2018-09-28T00:03:31.322Z,0
2018-09-28T00:04:31.554Z,0
2018-09-28T00:05:31.300Z,0
2018-09-28T00:06:31.548Z,0
2018-09-28T00:07:31.031Z,0
2018-09-28T00:08:31.529Z,0
2018-09-28T00:09:31.274Z,0
2018-09-28T00:10:31.009Z,0
2018-09-28T00:11:31.258Z,0
2018-09-28T00:12:31.244Z,0
2018-09-28T00:13:31.236Z,0
2018-09-28T00:14:31.297Z,0
2018-09-28T00:15:31.483Z,0
2018-09-28T00:16:31.504Z,0
2018-09-28T00:17:31.235Z,0
2018-09-28T00:18:30.949Z,0
2018-09-28T00:19:31.196Z,0
2018-09-28T00:20:31.189Z,0
2018-09-28T00:21:31.181Z,0
2018-09-28T00:22:31.422Z,0
2018-09-28T00:23:31.421Z,0
2018-09-28T00:24:31.407Z,0
2018-09-28T00:25:30.895Z,0
2018-09-28T00:26:31.145Z,0
2018-09-28T00:27:31.398Z,0
2018-09-28T00:28:31.130Z,0
2018-09-28T00:29:31.369Z,0
2018-09-28T00:30:31.364Z,0
2018-09-28T00:31:31.101Z,0
2018-09-28T00:32:31.094Z,0
2018-09-28T00:33:31.090Z,0
2018-09-28T00:34:31.363Z,0
2018-09-28T00:35:31.070Z,0
2018-09-28T00:36:31.320Z,0
2018-09-28T00:37:31.366Z,0
2018-09-28T00:38:31.302Z,0
2018-09-28T00:39:31.049Z,0
2018-09-28T00:40:31.035Z,0
2018-09-28T00:41:31.279Z,0
2018-09-28T00:42:31.270Z,0
2018-09-28T00:43:31.319Z,0
2018-09-28T00:44:31.256Z,0
2018-09-28T00:45:31.251Z,0
2018-09-28T00:46:30.987Z,0
2018-09-28T00:47:30.977Z,0
2018-09-28T00:48:31.228Z,0
2018-09-28T00:49:31.216Z,0
2018-09-28T00:50:31.215Z,0
2018-09-28T00:51:31.199Z,0
2018-09-28T00:52:31.188Z,0
2018-09-28T00:53:31.187Z,0
2018-09-28T00:54:30.926Z,0
2018-09-28T00:55:31.170Z,0
2018-09-28T00:56:31.160Z,0
2018-09-28T00:57:31.156Z,0
2018-09-28T00:58:31.144Z,0
2018-09-28T00:59:31.136Z,0
2018-09-28T01:00:31.136Z,0
2018-09-28T01:01:31.127Z,0
2018-09-28T01:02:30.868Z,0
2018-09-28T01:03:30.857Z,0
2018-09-28T01:04:31.101Z,0
2018-09-28T01:05:31.086Z,0
2018-09-28T01:06:30.832Z,0
2018-09-28T01:07:31.072Z,0
2018-09-28T01:08:31.083Z,0
2018-09-28T01:09:30.807Z,0
2018-09-28T01:10:31.050Z,0
2018-09-28T01:11:30.534Z,0
2018-09-28T01:12:30.781Z,0
2018-09-28T01:13:31.033Z,0
2018-09-28T01:14:31.020Z,0
2018-09-28T01:15:30.513Z,0
2018-09-28T01:16:31.004Z,0
2018-09-28T01:17:30.995Z,0
2018-09-28T01:18:30.990Z,0
2018-09-28T01:19:30.985Z,0
2018-09-28T01:20:30.727Z,0
2018-09-28T01:21:30.981Z,0
2018-09-28T01:22:30.697Z,0
2018-09-28T01:23:30.694Z,0
2018-09-28T01:24:30.943Z,0
2018-09-28T01:25:30.934Z,0
2018-09-28T01:26:30.923Z,0
2018-09-28T01:27:30.917Z,0
2018-09-28T01:28:30.664Z,0
2018-09-28T01:29:30.912Z,0
2018-09-28T01:30:30.909Z,0
2018-09-28T01:31:30.879Z,0
2018-09-28T01:32:30.875Z,0
2018-09-28T01:33:30.862Z,0
2018-09-28T01:34:30.857Z,0
2018-09-28T01:35:30.596Z,0
2018-09-28T01:36:30.835Z,0
2018-09-28T01:37:30.829Z,0
2018-09-28T01:38:30.319Z,0
2018-09-28T01:39:30.864Z,0
2018-09-28T01:40:30.803Z,0
2018-09-28T01:41:30.293Z,0
2018-09-28T01:42:30.790Z,0
2018-09-28T01:43:30.782Z,0
2018-09-28T01:44:30.774Z,0
2018-09-28T01:45:30.515Z,0
2018-09-28T01:46:30.512Z,0
2018-09-28T01:47:30.743Z,0
2018-09-28T01:48:30.738Z,0
2018-09-28T01:49:30.727Z,0
2018-09-28T01:50:30.728Z,0
2018-09-28T01:51:30.459Z,0
2018-09-28T01:52:30.449Z,0
2018-09-28T01:53:30.699Z,0
2018-09-28T01:54:30.684Z,0
2018-09-28T01:55:30.424Z,0
2018-09-28T01:56:30.679Z,0
2018-09-28T01:57:30.664Z,0
2018-09-28T01:58:30.652Z,0
2018-09-28T01:59:30.650Z,0
2018-09-28T02:00:30.639Z,0
2018-09-28T02:01:30.628Z,0
2018-09-28T02:02:30.621Z,0
2018-09-28T02:03:30.362Z,0
2018-09-28T02:04:30.353Z,0
2018-09-28T02:05:30.341Z,0
2018-09-28T02:06:30.330Z,0
2018-09-28T02:07:30.072Z,0
2018-09-28T02:08:30.063Z,0
2018-09-28T02:09:30.313Z,0
2018-09-28T02:10:30.552Z,0
2018-09-28T02:11:30.037Z,0
2018-09-28T02:12:30.793Z,0
2018-09-28T02:13:30.276Z,0
2018-09-28T02:14:30.011Z,0
2018-09-28T02:15:29.754Z,0
2018-09-28T02:16:30.251Z,0
2018-09-28T02:17:30.387Z,0
2018-09-28T02:18:30.484Z,0
2018-09-28T02:19:30.222Z,0
2018-09-28T02:20:30.483Z,0
2018-09-28T02:21:30.203Z,0
2018-09-28T02:22:30.501Z,0
2018-09-28T02:23:30.438Z,0
2018-09-28T02:24:30.180Z,0
2018-09-28T02:25:30.424Z,0
2018-09-28T02:26:30.426Z,0
2018-09-28T02:27:30.152Z,0
2018-09-28T02:28:30.405Z,0
2018-09-28T02:29:29.885Z,0
2018-09-28T02:30:29.880Z,0
2018-09-28T02:31:29.866Z,0
2018-09-28T02:32:30.110Z,0
2018-09-28T02:33:30.104Z,0
2018-09-28T02:34:30.093Z,0
2018-09-28T02:35:29.839Z,0
2018-09-28T02:36:30.332Z,0
2018-09-28T02:37:30.065Z,0
2018-09-28T02:38:30.307Z,0
2018-09-28T02:39:30.304Z,0
2018-09-28T02:40:29.789Z,0
2018-09-28T02:41:30.042Z,0
2018-09-28T02:42:30.042Z,0
2018-09-28T02:43:30.284Z,0
2018-09-28T02:44:30.012Z,0
2018-09-28T02:45:30.249Z,0
2018-09-28T02:46:30.239Z,0
2018-09-28T02:47:30.235Z,0
2018-09-28T02:48:30.224Z,0
2018-09-28T02:49:29.962Z,0
2018-09-28T02:50:30.208Z,0
2018-09-28T02:51:29.943Z,0
2018-09-28T02:52:29.942Z,0
2018-09-28T02:53:30.186Z,0
2018-09-28T02:54:30.173Z,0
2018-09-28T02:55:30.175Z,0
2018-09-28T02:56:30.155Z,0
2018-09-28T02:57:29.894Z,0
2018-09-28T02:58:29.889Z,0
2018-09-28T02:59:29.879Z,0
2018-09-28T03:00:29.615Z,0
2018-09-28T03:01:29.863Z,0
2018-09-28T03:02:30.110Z,0
2018-09-28T03:03:29.855Z,0
2018-09-28T03:04:30.101Z,0
2018-09-28T03:05:30.086Z,0
2018-09-28T03:06:30.778Z,0
2018-09-28T03:07:29.806Z,0
2018-09-28T03:08:29.796Z,0
2018-09-28T03:09:30.058Z,0
2018-09-28T03:10:29.776Z,0
2018-09-28T03:11:29.788Z,0
2018-09-28T03:12:29.761Z,0
2018-09-28T03:13:29.762Z,0
2018-09-28T03:14:29.744Z,0
2018-09-28T03:15:29.739Z,0
2018-09-28T03:16:29.734Z,0
2018-09-28T03:17:29.730Z,0
2018-09-28T03:18:29.967Z,0
2018-09-28T03:19:29.959Z,0
2018-09-28T03:20:29.691Z,0
2018-09-28T03:21:29.682Z,0
2018-09-28T03:22:29.932Z,0
2018-09-28T03:23:29.927Z,0
2018-09-28T03:24:29.911Z,0
2018-09-28T03:25:29.661Z,0
2018-09-28T03:26:29.645Z,0
2018-09-28T03:27:29.887Z,0
2018-09-28T03:28:29.625Z,0
2018-09-28T03:29:29.614Z,0
2018-09-28T03:30:29.624Z,0
2018-09-28T03:31:29.879Z,0
2018-09-28T03:32:29.854Z,0
2018-09-28T03:33:29.582Z,0
2018-09-28T03:34:29.319Z,0
2018-09-28T03:35:29.563Z,0
2018-09-28T03:36:29.556Z,0
2018-09-28T03:37:29.806Z,0
2018-09-28T03:38:29.800Z,0
2018-09-28T03:39:29.302Z,0
2018-09-28T03:40:29.650Z,0
2018-09-28T03:41:29.781Z,0
2018-09-28T03:42:29.786Z,0
2018-09-28T03:43:29.754Z,0
2018-09-28T03:44:29.494Z,0
2018-09-28T03:45:29.493Z,0
2018-09-28T03:46:29.726Z,0
2018-09-28T03:47:29.469Z,0
2018-09-28T03:48:29.482Z,0
2018-09-28T03:49:29.702Z,0
2018-09-28T03:50:29.186Z,0
2018-09-28T03:51:29.770Z,0
2018-09-28T03:52:29.425Z,0
2018-09-28T03:53:29.666Z,0
2018-09-28T03:54:29.668Z,0
2018-09-28T03:55:29.718Z,0
2018-09-28T03:56:29.642Z,0
2018-09-28T03:57:29.397Z,0
2018-09-28T03:58:29.629Z,0
2018-09-28T03:59:29.630Z,0
2018-09-28T04:00:29.615Z,0
2018-09-28T04:01:29.602Z,0
2018-09-28T04:02:29.343Z,0
2018-09-28T04:03:29.334Z,0
2018-09-28T04:04:29.575Z,0
2018-09-28T04:05:29.567Z,0
2018-09-28T04:06:29.579Z,0
2018-09-28T04:07:29.559Z,0
2018-09-28T04:08:29.296Z,0
2018-09-28T04:09:29.532Z,0
2018-09-28T04:10:29.527Z,0
2018-09-28T04:11:29.524Z,0
2018-09-28T04:12:29.516Z,0
2018-09-28T04:13:29.244Z,0
2018-09-28T04:14:29.489Z,0
2018-09-28T04:15:29.483Z,0
2018-09-28T04:16:28.973Z,0
2018-09-28T04:17:29.220Z,0
2018-09-28T04:18:29.472Z,0
2018-09-28T04:19:29.205Z,0
2018-09-28T04:20:29.450Z,0
2018-09-28T04:21:29.445Z,0
2018-09-28T04:22:29.443Z,0
2018-09-28T04:23:29.418Z,0
2018-09-28T04:24:29.160Z,0
2018-09-28T04:25:29.399Z,0
2018-09-28T04:26:29.404Z,0
2018-09-28T04:27:29.389Z,0
2018-09-28T04:28:29.372Z,0
2018-09-28T04:29:29.371Z,0
2018-09-28T04:30:29.354Z,0
2018-09-28T04:31:29.099Z,0
2018-09-28T04:32:29.097Z,0
2018-09-28T04:33:29.331Z,0
2018-09-28T04:34:29.320Z,0
2018-09-28T04:35:29.312Z,0
2018-09-28T04:36:29.055Z,0
2018-09-28T04:37:29.305Z,0
2018-09-28T04:38:29.295Z,0
2018-09-28T04:39:29.281Z,0
2018-09-28T04:40:29.270Z,0
2018-09-28T04:41:29.278Z,0
2018-09-28T04:42:29.005Z,0
2018-09-28T04:43:28.751Z,0
2018-09-28T04:44:28.991Z,0
2018-09-28T04:45:29.695Z,0
2018-09-28T04:46:29.229Z,0
2018-09-28T04:47:29.218Z,0
2018-09-28T04:48:28.950Z,0
2018-09-28T04:49:29.193Z,0
2018-09-28T04:50:29.188Z,0
2018-09-28T04:51:29.171Z,5
2018-09-28T04:52:29.177Z,5
2018-09-28T04:53:29.173Z,5
2018-09-28T04:54:29.164Z,5
2018-09-28T04:55:29.141Z,5
2018-09-28T04:56:29.171Z,5
2018-09-28T04:57:28.623Z,5
2018-09-28T04:58:28.616Z,10
2018-09-28T04:59:28.350Z,10
2018-09-28T05:00:29.100Z,10
2018-09-28T05:01:29.089Z,10
2018-09-28T05:02:28.832Z,15
2018-09-28T05:03:28.864Z,15
2018-09-28T05:04:28.814Z,15
2018-09-28T05:05:28.551Z,15
2018-09-28T05:06:28.543Z,20
2018-09-28T05:07:28.282Z,20
2018-09-28T05:08:29.033Z,20
2018-09-28T05:09:29.019Z,25
2018-09-28T05:10:28.766Z,25
2018-09-28T05:11:29.007Z,30
2018-09-28T05:12:29.021Z,30
2018-09-28T05:13:28.995Z,30
2018-09-28T05:14:28.980Z,35
2018-09-28T05:15:28.973Z,35
2018-09-28T05:16:28.959Z,40
2018-09-28T05:17:28.700Z,40
2018-09-28T05:18:28.944Z,45
2018-09-28T05:19:29.204Z,45
2018-09-28T05:20:28.422Z,50
2018-09-28T05:21:28.918Z,50
2018-09-28T05:22:28.660Z,50
2018-09-28T05:23:28.905Z,55
2018-09-28T05:24:28.895Z,60
2018-09-28T05:25:29.369Z,60
2018-09-28T05:26:28.878Z,65
2018-09-28T05:27:28.869Z,70
2018-09-28T05:28:28.613Z,75
2018-09-28T05:29:28.851Z,75
2018-09-28T05:30:28.849Z,80
2018-09-28T05:31:29.713Z,90
2018-09-28T05:32:29.983Z,90
2018-09-28T05:33:28.814Z,90
2018-09-28T05:34:28.809Z,95
2018-09-28T05:35:28.552Z,95
2018-09-28T05:36:28.800Z,105
2018-09-28T05:37:28.802Z,110
2018-09-28T05:38:28.777Z,110
2018-09-28T05:39:28.810Z,110
2018-09-28T05:40:28.769Z,110
2018-09-28T05:41:28.253Z,110
2018-09-28T05:42:28.804Z,110
2018-09-28T05:43:28.739Z,110
2018-09-28T05:44:28.733Z,130
2018-09-28T05:45:28.487Z,140
2018-09-28T05:46:29.257Z,140
2018-09-28T05:47:28.203Z,135
2018-09-28T05:48:28.456Z,130
2018-09-28T05:49:28.706Z,120
2018-09-28T05:50:28.688Z,105
2018-09-28T05:51:29.140Z,100
2018-09-28T05:52:28.681Z,85
2018-09-28T05:53:28.670Z,70
2018-09-28T05:54:28.706Z,65
2018-09-28T05:55:28.400Z,70
2018-09-28T05:56:28.145Z,70
2018-09-28T05:57:28.654Z,65
2018-09-28T05:58:28.872Z,60
2018-09-28T05:59:28.628Z,55
2018-09-28T06:00:28.371Z,60
2018-09-28T06:01:28.367Z,75
2018-09-28T06:02:28.104Z,85
2018-09-28T06:03:28.600Z,90
2018-09-28T06:04:28.599Z,85
2018-09-28T06:05:28.474Z,75
2018-09-28T06:06:28.335Z,75
2018-09-28T06:07:28.579Z,70
2018-09-28T06:08:28.575Z,65
2018-09-28T06:09:28.579Z,60
2018-09-28T06:10:28.566Z,55
2018-09-28T06:11:28.553Z,60
2018-09-28T06:12:28.298Z,60
2018-09-28T06:13:28.037Z,60
2018-09-28T06:14:28.291Z,60
2018-09-28T06:15:28.285Z,55
2018-09-28T06:16:28.275Z,50
2018-09-28T06:17:28.518Z,45
2018-09-28T06:18:28.689Z,40
2018-09-28T06:19:28.249Z,40
2018-09-28T06:20:28.565Z,40
2018-09-28T06:21:28.308Z,40
2018-09-28T06:22:28.479Z,40
2018-09-28T06:23:28.483Z,45
2018-09-28T06:24:28.222Z,55
2018-09-28T06:25:28.212Z,55
2018-09-28T06:26:28.209Z,50
2018-09-28T06:27:28.205Z,50
2018-09-28T06:28:28.446Z,65
2018-09-28T06:29:28.494Z,65
2018-09-28T06:30:28.618Z,70
2018-09-28T06:31:28.178Z,60
2018-09-28T06:32:28.425Z,65
2018-09-28T06:33:28.420Z,60
2018-09-28T06:34:28.419Z,60
2018-09-28T06:35:28.498Z,65
2018-09-28T06:36:28.959Z,65
2018-09-28T06:37:28.142Z,65
2018-09-28T06:38:28.389Z,65
2018-09-28T06:39:27.891Z,65
2018-09-28T06:40:28.374Z,65
2018-09-28T06:41:28.116Z,75
2018-09-28T06:42:28.404Z,75
2018-09-28T06:43:27.852Z,70
2018-09-28T06:44:27.866Z,65
2018-09-28T06:45:28.091Z,60
2018-09-28T06:46:28.336Z,55
2018-09-28T06:47:28.334Z,60
2018-09-28T06:48:28.743Z,60
2018-09-28T06:49:27.811Z,65
2018-09-28T06:50:28.358Z,65
2018-09-28T06:51:28.054Z,65
2018-09-28T06:52:28.294Z,65
2018-09-28T06:53:28.038Z,65
2018-09-28T06:54:28.180Z,60
2018-09-28T06:55:27.775Z,55
2018-09-28T06:56:28.277Z,50
2018-09-28T06:57:28.016Z,45
2018-09-28T06:58:28.563Z,45
2018-09-28T06:59:28.006Z,45
2018-09-28T07:00:28.352Z,40
2018-09-28T07:01:27.486Z,45
2018-09-28T07:02:28.238Z,45
2018-09-28T07:03:28.230Z,55
2018-09-28T07:04:27.971Z,65
2018-09-28T07:05:27.970Z,65
2018-09-28T07:06:28.624Z,75
2018-09-28T07:07:28.210Z,80
2018-09-28T07:08:28.258Z,90
2018-09-28T07:09:28.308Z,110
2018-09-28T07:10:28.198Z,125
2018-09-28T07:11:28.195Z,145
2018-09-28T07:12:28.063Z,150
2018-09-28T07:13:28.254Z,170
2018-09-28T07:14:28.176Z,200
2018-09-28T07:15:27.911Z,215
2018-09-28T07:16:28.777Z,215
2018-09-28T07:17:28.159Z,205
2018-09-28T07:18:28.784Z,200
2018-09-28T07:19:28.144Z,220
2018-09-28T07:20:27.630Z,230
2018-09-28T07:21:28.137Z,215
2018-09-28T07:22:28.117Z,210
2018-09-28T07:23:28.122Z,205
2018-09-28T07:24:28.584Z,205
2018-09-28T07:25:28.122Z,210
2018-09-28T07:26:28.093Z,225
2018-09-28T07:27:27.593Z,245
2018-09-28T07:28:27.585Z,255
2018-09-28T07:29:28.084Z,265
2018-09-28T07:30:28.424Z,270
2018-09-28T07:31:28.076Z,255
2018-09-28T07:32:27.809Z,245
2018-09-28T07:33:28.060Z,225
2018-09-28T07:34:27.806Z,185
2018-09-28T07:35:27.794Z,170
2018-09-28T07:36:29.102Z,170
2018-09-28T07:37:27.937Z,420
2018-09-28T07:38:27.526Z,180
2018-09-28T07:39:28.028Z,190
2018-09-28T07:40:28.024Z,210
2018-09-28T07:41:28.019Z,260
2018-09-28T07:42:28.410Z,295
2018-09-28T07:43:27.502Z,310
2018-09-28T07:44:28.009Z,315
2018-09-28T07:45:28.002Z,310
2018-09-28T07:46:27.737Z,290
2018-09-28T07:47:27.734Z,270
2018-09-28T07:48:28.313Z,260
2018-09-28T07:49:28.135Z,250
2018-09-28T07:50:27.977Z,255
2018-09-28T07:51:27.461Z,255
2018-09-28T07:52:27.707Z,255
2018-09-28T07:53:27.953Z,265
2018-09-28T07:54:27.706Z,285
2018-09-28T07:55:27.449Z,275
2018-09-28T07:56:27.691Z,265
2018-09-28T07:57:27.687Z,260
2018-09-28T07:58:27.679Z,245
2018-09-28T07:59:27.937Z,245
2018-09-28T08:00:27.427Z,250
2018-09-28T08:01:27.667Z,265
2018-09-28T08:02:27.660Z,255
2018-09-28T08:03:27.407Z,245
2018-09-28T08:04:27.905Z,230
2018-09-28T08:05:27.894Z,225
2018-09-28T08:06:27.639Z,225
2018-09-28T08:07:27.636Z,220
2018-09-28T08:08:27.383Z,215
2018-09-28T08:09:27.883Z,215
2018-09-28T08:10:27.881Z,220
2018-09-28T08:11:27.625Z,215
2018-09-28T08:12:27.860Z,215
2018-09-28T08:13:27.867Z,215
2018-09-28T08:14:27.849Z,220
2018-09-28T08:15:27.594Z,225
2018-09-28T08:16:27.337Z,235
2018-09-28T08:17:27.578Z,240
2018-09-28T08:18:27.581Z,240
2018-09-28T08:19:27.573Z,240
2018-09-28T08:20:27.820Z,255
2018-09-28T08:21:27.559Z,290
2018-09-28T08:22:27.554Z,300
2018-09-28T08:23:27.932Z,295
2018-09-28T08:24:27.546Z,280
2018-09-28T08:25:27.290Z,275
2018-09-28T08:26:27.788Z,280
2018-09-28T08:27:27.531Z,280
2018-09-28T08:28:27.275Z,280
2018-09-28T08:29:28.062Z,305
2018-09-28T08:30:27.745Z,330
2018-09-28T08:31:27.767Z,355
2018-09-28T08:32:27.506Z,355
2018-09-28T08:33:27.756Z,340
2018-09-28T08:34:27.789Z,350
2018-09-28T08:35:27.737Z,370
2018-09-28T08:36:28.119Z,405
2018-09-28T08:37:27.479Z,420
2018-09-28T08:38:27.726Z,430
2018-09-28T08:39:27.475Z,420
2018-09-28T08:40:27.729Z,385
2018-09-28T08:41:27.459Z,340
2018-09-28T08:42:27.710Z,300
2018-09-28T08:43:27.311Z,265
2018-09-28T08:44:27.459Z,235
2018-09-28T08:45:27.692Z,220
2018-09-28T08:46:27.439Z,205
2018-09-28T08:47:27.430Z,205
2018-09-28T08:48:27.433Z,205
2018-09-28T08:49:28.104Z,210
2018-09-28T08:50:27.421Z,210
2018-09-28T08:51:27.410Z,210
2018-09-28T08:52:27.405Z,210
2018-09-28T08:53:27.656Z,210
2018-09-28T08:54:27.647Z,210
2018-09-28T08:55:26.889Z,210
2018-09-28T08:56:27.388Z,215
2018-09-28T08:57:27.128Z,225
2018-09-28T08:58:27.631Z,240
2018-09-28T08:59:27.621Z,265
2018-09-28T09:00:27.625Z,290
2018-09-28T09:01:27.361Z,305
2018-09-28T09:02:27.813Z,300
2018-09-28T09:03:27.368Z,280
2018-09-28T09:04:27.597Z,260
2018-09-28T09:05:27.347Z,245
2018-09-28T09:06:27.352Z,235
2018-09-28T09:07:27.590Z,225
2018-09-28T09:08:27.641Z,220
2018-09-28T09:09:27.581Z,220
2018-09-28T09:10:27.316Z,230
2018-09-28T09:11:27.570Z,240
2018-09-28T09:12:27.312Z,245
2018-09-28T09:13:27.052Z,250
2018-09-28T09:14:27.299Z,275
2018-09-28T09:15:27.297Z,305
2018-09-28T09:16:27.290Z,350
2018-09-28T09:17:27.540Z,390
2018-09-28T09:18:27.633Z,425
2018-09-28T09:19:27.032Z,440
2018-09-28T09:20:27.519Z,430
2018-09-28T09:21:27.267Z,410
2018-09-28T09:22:27.516Z,400
2018-09-28T09:23:27.522Z,410
2018-09-28T09:24:27.503Z,425
2018-09-28T09:25:27.503Z,445
2018-09-28T09:26:27.250Z,450
2018-09-28T09:27:27.644Z,465
2018-09-28T09:28:27.491Z,460
2018-09-28T09:29:27.233Z,465
2018-09-28T09:30:27.625Z,445
2018-09-28T09:31:27.473Z,460
2018-09-28T09:32:27.477Z,505
2018-09-28T09:33:27.218Z,525
2018-09-28T09:34:27.464Z,520
2018-09-28T09:35:27.254Z,495
2018-09-28T09:36:27.584Z,480
2018-09-28T09:37:27.206Z,450
2018-09-28T09:38:27.454Z,440
2018-09-28T09:39:27.196Z,420
2018-09-28T09:40:27.446Z,405
2018-09-28T09:41:27.010Z,405
2018-09-28T09:42:27.190Z,390
2018-09-28T09:43:27.181Z,365
2018-09-28T09:44:27.432Z,350
2018-09-28T09:45:27.187Z,320
2018-09-28T09:46:26.925Z,290
2018-09-28T09:47:27.424Z,295
2018-09-28T09:48:27.108Z,325
2018-09-28T09:49:27.419Z,385
2018-09-28T09:50:27.167Z,410
2018-09-28T09:51:27.409Z,430
2018-09-28T09:52:27.155Z,460
2018-09-28T09:53:27.150Z,495
2018-09-28T09:54:27.399Z,500
2018-09-28T09:55:26.641Z,475
2018-09-28T09:56:27.142Z,460
2018-09-28T09:57:27.139Z,450
2018-09-28T09:58:27.392Z,450
2018-09-28T09:59:27.385Z,470
2018-09-28T10:00:27.131Z,475
2018-09-28T10:01:27.132Z,450
2018-09-28T10:02:27.115Z,435
2018-09-28T10:03:26.864Z,415
2018-09-28T10:04:27.369Z,405
2018-09-28T10:05:27.109Z,410
2018-09-28T10:06:27.362Z,420
2018-09-28T10:07:27.105Z,430
2018-09-28T10:08:27.372Z,445
2018-09-28T10:09:27.098Z,450
2018-09-28T10:10:27.344Z,450
2018-09-28T10:11:27.343Z,465
2018-09-28T10:12:28.044Z,480
2018-09-28T10:13:27.342Z,470
2018-09-28T10:14:27.084Z,450
2018-09-28T10:15:27.329Z,425
2018-09-28T10:16:27.338Z,395
2018-09-28T10:17:27.090Z,365
2018-09-28T10:18:27.331Z,355
2018-09-28T10:19:27.527Z,355
2018-09-28T10:20:27.068Z,360
2018-09-28T10:21:27.352Z,370
2018-09-28T10:22:27.058Z,370
2018-09-28T10:23:26.805Z,365
2018-09-28T10:24:27.053Z,355
2018-09-28T10:25:27.044Z,340
2018-09-28T10:26:27.042Z,325
2018-09-28T10:27:27.757Z,315
2018-09-28T10:28:27.280Z,320
2018-09-28T10:29:26.783Z,330
2018-09-28T10:30:27.028Z,340
2018-09-28T10:31:27.025Z,360
2018-09-28T10:32:27.278Z,375
2018-09-28T10:33:27.048Z,370
2018-09-28T10:34:27.453Z,370
2018-09-28T10:35:26.511Z,375
2018-09-28T10:36:27.262Z,390
2018-09-28T10:37:27.261Z,405
2018-09-28T10:38:27.267Z,420
2018-09-28T10:39:26.312Z,430
2018-09-28T10:40:27.536Z,425
2018-09-28T10:41:27.386Z,400
2018-09-28T10:42:26.991Z,370
2018-09-28T10:43:26.992Z,350
2018-09-28T10:44:26.984Z,345
2018-09-28T10:45:27.393Z,340
2018-09-28T10:46:27.027Z,330
2018-09-28T10:47:27.228Z,305
2018-09-28T10:48:27.215Z,280
2018-09-28T10:49:27.276Z,275
2018-09-28T10:50:27.219Z,265
2018-09-28T10:51:27.816Z,275
2018-09-28T10:52:28.858Z,300
2018-09-28T10:53:26.699Z,330
2018-09-28T10:54:27.244Z,360
2018-09-28T10:55:26.952Z,360
2018-09-28T10:56:26.937Z,345
2018-09-28T10:57:27.688Z,325
2018-09-28T10:58:27.646Z,305
2018-09-28T10:59:27.192Z,300
2018-09-28T11:00:27.082Z,305
2018-09-28T11:01:26.671Z,325
2018-09-28T11:02:27.175Z,345
2018-09-28T11:03:27.625Z,365
2018-09-28T11:04:27.232Z,365
2018-09-28T11:05:27.169Z,340
2018-09-28T11:06:27.163Z,320
2018-09-28T11:07:26.911Z,295
2018-09-28T11:08:27.622Z,265
2018-09-28T11:09:27.160Z,245
2018-09-28T11:10:27.246Z,225
2018-09-28T11:11:27.143Z,205
2018-09-28T11:12:26.887Z,190
2018-09-28T11:13:27.190Z,190
2018-09-28T11:14:27.138Z,185
2018-09-28T11:15:27.636Z,190
2018-09-28T11:16:26.884Z,200
2018-09-28T11:17:27.121Z,215
2018-09-28T11:18:27.125Z,215
2018-09-28T11:19:27.118Z,210
2018-09-28T11:20:27.116Z,205
2018-09-28T11:21:27.375Z,210
2018-09-28T11:22:27.117Z,225
2018-09-28T11:23:26.845Z,225
2018-09-28T11:24:26.591Z,225
2018-09-28T11:25:27.101Z,210
2018-09-28T11:26:27.644Z,200
2018-09-28T11:27:27.359Z,190
2018-09-28T11:28:27.089Z,185
2018-09-28T11:29:26.826Z,175
2018-09-28T11:30:26.821Z,170
2018-09-28T11:31:26.814Z,170
2018-09-28T11:32:27.059Z,170
2018-09-28T11:33:27.618Z,175
2018-09-28T11:34:26.549Z,175
2018-09-28T11:35:26.545Z,190
2018-09-28T11:36:27.050Z,200
2018-09-28T11:37:26.785Z,205
2018-09-28T11:38:26.785Z,205
2018-09-28T11:39:27.311Z,205
2018-09-28T11:40:27.033Z,210
2018-09-28T11:41:26.526Z,220
2018-09-28T11:42:27.019Z,220
2018-09-28T11:43:26.682Z,240
2018-09-28T11:44:26.769Z,260
2018-09-28T11:45:27.702Z,290
2018-09-28T11:46:27.011Z,305
2018-09-28T11:47:26.996Z,325
2018-09-28T11:48:26.740Z,335
2018-09-28T11:49:27.100Z,345
2018-09-28T11:50:26.991Z,360
2018-09-28T11:51:26.948Z,365
2018-09-28T11:52:26.985Z,365
2018-09-28T11:53:27.026Z,355
2018-09-28T11:54:26.713Z,325
2018-09-28T11:55:26.964Z,295
2018-09-28T11:56:26.961Z,270
2018-09-28T11:57:27.361Z,260
2018-09-28T11:58:26.960Z,260
2018-09-28T11:59:26.740Z,260
2018-09-28T12:00:26.961Z,260
2018-09-28T12:01:26.938Z,265
2018-09-28T12:02:26.955Z,270
2018-09-28T12:03:27.080Z,280
2018-09-28T12:04:26.936Z,295
2018-09-28T12:05:26.421Z,305
2018-09-28T12:06:27.863Z,305
2018-09-28T12:07:26.921Z,325
2018-09-28T12:08:26.660Z,340
2018-09-28T12:09:27.317Z,365
2018-09-28T12:10:26.901Z,375
2018-09-28T12:11:26.650Z,360
2018-09-28T12:12:26.774Z,360
2018-09-28T12:13:27.163Z,355
2018-09-28T12:14:26.634Z,355
2018-09-28T12:15:27.172Z,340
2018-09-28T12:16:26.632Z,325
2018-09-28T12:17:26.878Z,305
2018-09-28T12:18:27.048Z,280
2018-09-28T12:19:26.629Z,265
2018-09-28T12:20:26.614Z,270
2018-09-28T12:21:27.341Z,270
2018-09-28T12:22:26.607Z,255
2018-09-28T12:23:26.604Z,245
2018-09-28T12:24:27.304Z,235
2018-09-28T12:25:26.848Z,230
2018-09-28T12:26:26.592Z,245
2018-09-28T12:27:26.852Z,255
2018-09-28T12:28:26.601Z,250
2018-09-28T12:29:26.587Z,245
2018-09-28T12:30:27.418Z,245
2018-09-28T12:31:26.632Z,255
2018-09-28T12:32:26.577Z,275
2018-09-28T12:33:26.991Z,275
2018-09-28T12:34:26.318Z,270
2018-09-28T12:35:26.690Z,265
2018-09-28T12:36:27.437Z,260
2018-09-28T12:37:26.555Z,250
2018-09-28T12:38:26.851Z,240
2018-09-28T12:39:26.864Z,235
2018-09-28T12:40:26.554Z,240
2018-09-28T12:41:26.542Z,235
2018-09-28T12:42:27.347Z,235
2018-09-28T12:43:26.534Z,230
2018-09-28T12:44:27.548Z,230
2018-09-28T12:45:27.636Z,225
2018-09-28T12:46:26.779Z,225
2018-09-28T12:47:26.772Z,235
2018-09-28T12:48:27.220Z,250
2018-09-28T12:49:26.772Z,275
2018-09-28T12:50:27.341Z,290
2018-09-28T12:51:26.256Z,315
2018-09-28T12:52:26.754Z,320
2018-09-28T12:53:26.758Z,315
2018-09-28T12:54:26.817Z,300
2018-09-28T12:55:26.744Z,270
2018-09-28T12:56:27.358Z,250
2018-09-28T12:57:26.238Z,235
2018-09-28T12:58:26.481Z,235
2018-09-28T12:59:26.724Z,230
2018-09-28T13:00:27.242Z,225
2018-09-28T13:01:26.471Z,230
2018-09-28T13:02:26.580Z,230
2018-09-28T13:03:26.461Z,230
2018-09-28T13:04:26.715Z,240
2018-09-28T13:05:26.705Z,240
2018-09-28T13:06:26.778Z,225
2018-09-28T13:07:26.700Z,225
2018-09-28T13:08:27.150Z,220
2018-09-28T13:09:26.943Z,220
2018-09-28T13:10:26.689Z,225
2018-09-28T13:11:26.474Z,230
2018-09-28T13:12:27.383Z,240
2018-09-28T13:13:26.680Z,260
2018-09-28T13:14:26.924Z,285
2018-09-28T13:15:26.838Z,290
2018-09-28T13:16:26.668Z,275
2018-09-28T13:17:26.670Z,260
2018-09-28T13:18:26.500Z,250
2018-09-28T13:19:26.662Z,240
2018-09-28T13:20:26.821Z,235
2018-09-28T13:21:26.654Z,220
2018-09-28T13:22:26.658Z,210
2018-09-28T13:23:26.395Z,200
2018-09-28T13:24:27.213Z,175
2018-09-28T13:25:26.636Z,170
2018-09-28T13:26:27.161Z,160
2018-09-28T13:27:26.641Z,155
2018-09-28T13:28:26.618Z,150
2018-09-28T13:29:26.953Z,145
2018-09-28T13:30:26.364Z,145
2018-09-28T13:31:26.618Z,140
2018-09-28T13:32:27.229Z,140
2018-09-28T13:33:26.610Z,140
2018-09-28T13:34:26.596Z,135
2018-09-28T13:35:26.338Z,140
2018-09-28T13:36:27.408Z,140
2018-09-28T13:37:26.079Z,145
2018-09-28T13:38:26.846Z,150
2018-09-28T13:39:26.323Z,155
2018-09-28T13:40:26.568Z,165
2018-09-28T13:41:26.572Z,165
2018-09-28T13:42:27.093Z,165
2018-09-28T13:43:26.311Z,155
2018-09-28T13:44:27.027Z,150
2018-09-28T13:45:26.910Z,150
2018-09-28T13:46:26.653Z,150
2018-09-28T13:47:26.543Z,150
2018-09-28T13:48:26.494Z,145
2018-09-28T13:49:26.530Z,150
2018-09-28T13:50:26.378Z,145
2018-09-28T13:51:26.277Z,150
2018-09-28T13:52:26.593Z,155
2018-09-28T13:53:26.272Z,155
2018-09-28T13:54:27.044Z,160
2018-09-28T13:55:26.246Z,160
2018-09-28T13:56:26.830Z,160
2018-09-28T13:57:25.981Z,165
2018-09-28T13:58:27.151Z,175
2018-09-28T13:59:26.225Z,185
2018-09-28T14:00:26.616Z,200
2018-09-28T14:01:25.965Z,225
2018-09-28T14:02:26.631Z,250
2018-09-28T14:03:26.207Z,280
2018-09-28T14:04:26.702Z,290
2018-09-28T14:05:25.691Z,295
2018-09-28T14:06:26.917Z,295
2018-09-28T14:07:26.533Z,285
2018-09-28T14:08:26.951Z,290
2018-09-28T14:09:26.182Z,280
2018-09-28T14:10:26.730Z,280